sensor_id;sensor_type;location;lat;lon;timestamp;temperature;humidity
975;DHT22;6115;49.296;10.602;2022-10-16T00:02:59;15.90;78.40
975;DHT22;6115;49.296;10.602;2022-10-16T00:07:59;15.90;78.70
975;DHT22;6115;49.296;10.602;2022-10-16T00:13:00;15.90;78.80
975;DHT22;6115;49.296;10.602;2022-10-16T00:18:00;15.90;79.10
975;DHT22;6115;49.296;10.602;2022-10-16T00:23:01;15.80;79.60
975;DHT22;6115;49.296;10.602;2022-10-16T00:28:02;15.80;79.70
975;DHT22;6115;49.296;10.602;2022-10-16T00:33:02;15.80;79.70
975;DHT22;6115;49.296;10.602;2022-10-16T00:38:03;15.90;79.80
975;DHT22;6115;49.296;10.602;2022-10-16T00:43:13;15.80;79.70
975;DHT22;6115;49.296;10.602;2022-10-16T00:48:22;15.70;80.40
975;DHT22;6115;49.296;10.602;2022-10-16T00:53:23;15.80;79.70
975;DHT22;6115;49.296;10.602;2022-10-16T00:58:25;15.80;79.70
975;DHT22;6115;49.296;10.602;2022-10-16T01:03:31;15.80;79.80
975;DHT22;6115;49.296;10.602;2022-10-16T01:08:45;15.80;79.70
975;DHT22;6115;49.296;10.602;2022-10-16T01:13:54;15.70;79.70
975;DHT22;6115;49.296;10.602;2022-10-16T01:19:09;15.70;79.90
975;DHT22;6115;49.296;10.602;2022-10-16T01:29:24;15.70;79.90
975;DHT22;6115;49.296;10.602;2022-10-16T01:34:32;15.70;79.80
975;DHT22;6115;49.296;10.602;2022-10-16T01:39:35;15.70;80.00
975;DHT22;6115;49.296;10.602;2022-10-16T01:44:39;15.80;80.30
975;DHT22;6115;49.296;10.602;2022-10-16T01:49:42;15.80;80.10
975;DHT22;6115;49.296;10.602;2022-10-16T01:54:46;15.80;80.10
975;DHT22;6115;49.296;10.602;2022-10-16T01:59:51;15.70;80.10
975;DHT22;6115;49.296;10.602;2022-10-16T02:05:16;15.70;80.60
975;DHT22;6115;49.296;10.602;2022-10-16T02:10:19;15.80;80.30
975;DHT22;6115;49.296;10.602;2022-10-16T02:15:19;15.80;80.40
975;DHT22;6115;49.296;10.602;2022-10-16T02:20:24;15.80;80.10
975;DHT22;6115;49.296;10.602;2022-10-16T02:25:32;15.80;80.30
975;DHT22;6115;49.296;10.602;2022-10-16T02:30:42;15.80;80.50
975;DHT22;6115;49.296;10.602;2022-10-16T02:35:46;15.70;80.80
975;DHT22;6115;49.296;10.602;2022-10-16T02:40:48;15.70;80.90
975;DHT22;6115;49.296;10.602;2022-10-16T02:45:48;15.70;81.20
975;DHT22;6115;49.296;10.602;2022-10-16T02:50:49;15.60;81.50
975;DHT22;6115;49.296;10.602;2022-10-16T02:55:50;15.60;81.60
975;DHT22;6115;49.296;10.602;2022-10-16T03:00:50;15.60;81.70
975;DHT22;6115;49.296;10.602;2022-10-16T03:05:51;15.50;81.80
975;DHT22;6115;49.296;10.602;2022-10-16T03:10:52;15.60;81.80
975;DHT22;6115;49.296;10.602;2022-10-16T03:15:52;15.60;81.60
975;DHT22;6115;49.296;10.602;2022-10-16T03:20:53;15.50;81.70
975;DHT22;6115;49.296;10.602;2022-10-16T03:25:53;15.60;81.50
975;DHT22;6115;49.296;10.602;2022-10-16T03:30:54;15.60;81.30
975;DHT22;6115;49.296;10.602;2022-10-16T03:35:55;15.60;81.40
975;DHT22;6115;49.296;10.602;2022-10-16T03:40:55;15.60;81.40
975;DHT22;6115;49.296;10.602;2022-10-16T03:45:56;15.60;81.10
975;DHT22;6115;49.296;10.602;2022-10-16T03:50:56;15.60;81.10
975;DHT22;6115;49.296;10.602;2022-10-16T03:55:57;15.60;81.10
975;DHT22;6115;49.296;10.602;2022-10-16T04:01:01;15.60;81.00
975;DHT22;6115;49.296;10.602;2022-10-16T04:06:02;15.60;81.10
975;DHT22;6115;49.296;10.602;2022-10-16T04:11:03;15.50;81.50
975;DHT22;6115;49.296;10.602;2022-10-16T04:16:03;15.50;81.40
975;DHT22;6115;49.296;10.602;2022-10-16T04:21:05;15.60;81.40
975;DHT22;6115;49.296;10.602;2022-10-16T04:26:06;15.60;81.00
975;DHT22;6115;49.296;10.602;2022-10-16T04:31:07;15.70;80.90
975;DHT22;6115;49.296;10.602;2022-10-16T04:36:08;15.70;80.50
975;DHT22;6115;49.296;10.602;2022-10-16T04:41:09;15.70;80.30
975;DHT22;6115;49.296;10.602;2022-10-16T04:46:09;15.70;80.20
975;DHT22;6115;49.296;10.602;2022-10-16T04:51:10;15.60;80.20
975;DHT22;6115;49.296;10.602;2022-10-16T04:56:11;15.60;80.50
975;DHT22;6115;49.296;10.602;2022-10-16T05:01:11;15.50;80.60
975;DHT22;6115;49.296;10.602;2022-10-16T05:06:12;15.50;80.70
975;DHT22;6115;49.296;10.602;2022-10-16T05:11:12;15.40;80.80
975;DHT22;6115;49.296;10.602;2022-10-16T05:16:13;15.30;81.20
975;DHT22;6115;49.296;10.602;2022-10-16T05:21:14;15.20;81.60
975;DHT22;6115;49.296;10.602;2022-10-16T05:26:14;15.20;81.60
975;DHT22;6115;49.296;10.602;2022-10-16T05:31:15;15.30;81.70
975;DHT22;6115;49.296;10.602;2022-10-16T05:36:16;15.20;81.70
975;DHT22;6115;49.296;10.602;2022-10-16T05:41:18;15.20;81.70
975;DHT22;6115;49.296;10.602;2022-10-16T05:46:23;15.20;81.80
975;DHT22;6115;49.296;10.602;2022-10-16T05:51:24;15.30;81.80
975;DHT22;6115;49.296;10.602;2022-10-16T05:56:25;15.30;81.40
975;DHT22;6115;49.296;10.602;2022-10-16T06:01:25;15.30;81.20
975;DHT22;6115;49.296;10.602;2022-10-16T06:06:27;15.30;81.40
975;DHT22;6115;49.296;10.602;2022-10-16T06:11:29;15.40;81.10
975;DHT22;6115;49.296;10.602;2022-10-16T06:16:31;15.40;80.80
975;DHT22;6115;49.296;10.602;2022-10-16T06:21:31;15.40;80.90
975;DHT22;6115;49.296;10.602;2022-10-16T06:26:32;15.50;80.70
975;DHT22;6115;49.296;10.602;2022-10-16T06:31:33;15.50;81.00
975;DHT22;6115;49.296;10.602;2022-10-16T06:36:33;15.50;80.00
975;DHT22;6115;49.296;10.602;2022-10-16T06:41:34;15.60;79.90
975;DHT22;6115;49.296;10.602;2022-10-16T06:46:35;15.70;79.70
975;DHT22;6115;49.296;10.602;2022-10-16T06:51:35;15.80;79.40
975;DHT22;6115;49.296;10.602;2022-10-16T06:56:41;15.90;79.10
975;DHT22;6115;49.296;10.602;2022-10-16T07:01:41;15.90;78.60
975;DHT22;6115;49.296;10.602;2022-10-16T07:06:42;15.90;78.40
975;DHT22;6115;49.296;10.602;2022-10-16T07:11:42;16.00;78.00
975;DHT22;6115;49.296;10.602;2022-10-16T07:16:43;16.00;78.20
975;DHT22;6115;49.296;10.602;2022-10-16T07:21:44;16.10;78.60
975;DHT22;6115;49.296;10.602;2022-10-16T07:26:45;16.30;78.10
975;DHT22;6115;49.296;10.602;2022-10-16T07:31:47;16.30;77.50
975;DHT22;6115;49.296;10.602;2022-10-16T07:36:51;16.30;78.00
975;DHT22;6115;49.296;10.602;2022-10-16T07:41:51;16.30;77.90
975;DHT22;6115;49.296;10.602;2022-10-16T07:46:52;16.50;78.00
975;DHT22;6115;49.296;10.602;2022-10-16T07:51:52;16.60;77.30
975;DHT22;6115;49.296;10.602;2022-10-16T07:56:53;16.80;77.40
975;DHT22;6115;49.296;10.602;2022-10-16T08:01:54;17.00;76.90
975;DHT22;6115;49.296;10.602;2022-10-16T08:06:54;17.10;76.20
975;DHT22;6115;49.296;10.602;2022-10-16T08:11:55;17.20;75.50
975;DHT22;6115;49.296;10.602;2022-10-16T08:16:55;17.20;75.40
975;DHT22;6115;49.296;10.602;2022-10-16T08:21:56;17.30;75.40
975;DHT22;6115;49.296;10.602;2022-10-16T08:26:56;17.40;75.00
975;DHT22;6115;49.296;10.602;2022-10-16T08:31:57;17.60;73.40
975;DHT22;6115;49.296;10.602;2022-10-16T08:36:58;17.70;73.30
975;DHT22;6115;49.296;10.602;2022-10-16T08:42:11;17.90;74.10
975;DHT22;6115;49.296;10.602;2022-10-16T08:52:19;18.30;72.50
975;DHT22;6115;49.296;10.602;2022-10-16T08:57:21;18.50;70.90
975;DHT22;6115;49.296;10.602;2022-10-16T09:02:40;18.40;70.40
975;DHT22;6115;49.296;10.602;2022-10-16T09:13:19;18.40;69.00
975;DHT22;6115;49.296;10.602;2022-10-16T09:18:38;18.00;70.20
975;DHT22;6115;49.296;10.602;2022-10-16T09:23:39;17.90;70.80
975;DHT22;6115;49.296;10.602;2022-10-16T09:28:40;17.80;71.50
975;DHT22;6115;49.296;10.602;2022-10-16T09:33:41;17.90;71.50
975;DHT22;6115;49.296;10.602;2022-10-16T09:38:42;18.30;71.00
975;DHT22;6115;49.296;10.602;2022-10-16T09:43:53;18.60;70.50
975;DHT22;6115;49.296;10.602;2022-10-16T09:49:03;18.70;69.30
975;DHT22;6115;49.296;10.602;2022-10-16T09:59:19;19.20;68.30
975;DHT22;6115;49.296;10.602;2022-10-16T10:04:21;19.40;66.60
975;DHT22;6115;49.296;10.602;2022-10-16T10:09:25;19.20;67.00
975;DHT22;6115;49.296;10.602;2022-10-16T10:19:27;19.90;66.60
975;DHT22;6115;49.296;10.602;2022-10-16T10:24:28;20.10;65.50
975;DHT22;6115;49.296;10.602;2022-10-16T10:45:39;20.70;63.50
975;DHT22;6115;49.296;10.602;2022-10-16T11:07:19;21.30;61.90
975;DHT22;6115;49.296;10.602;2022-10-16T11:12:34;21.20;60.70
975;DHT22;6115;49.296;10.602;2022-10-16T11:18:08;21.50;61.10
975;DHT22;6115;49.296;10.602;2022-10-16T11:23:16;21.80;60.70
975;DHT22;6115;49.296;10.602;2022-10-16T11:28:25;22.00;59.50
975;DHT22;6115;49.296;10.602;2022-10-16T11:33:30;22.00;58.40
975;DHT22;6115;49.296;10.602;2022-10-16T11:38:53;22.30;59.30
975;DHT22;6115;49.296;10.602;2022-10-16T11:44:24;22.90;58.30
975;DHT22;6115;49.296;10.602;2022-10-16T11:49:31;23.20;55.70
975;DHT22;6115;49.296;10.602;2022-10-16T11:54:39;23.30;55.20
975;DHT22;6115;49.296;10.602;2022-10-16T11:59:50;23.80;55.50
975;DHT22;6115;49.296;10.602;2022-10-16T12:05:19;23.90;55.00
975;DHT22;6115;49.296;10.602;2022-10-16T12:10:27;24.10;54.90
975;DHT22;6115;49.296;10.602;2022-10-16T12:15:33;24.40;52.80
975;DHT22;6115;49.296;10.602;2022-10-16T12:20:33;24.00;53.50
975;DHT22;6115;49.296;10.602;2022-10-16T12:25:38;23.80;53.80
975;DHT22;6115;49.296;10.602;2022-10-16T12:31:05;23.20;54.70
975;DHT22;6115;49.296;10.602;2022-10-16T12:36:16;23.30;55.50
975;DHT22;6115;49.296;10.602;2022-10-16T12:41:29;24.00;53.60
975;DHT22;6115;49.296;10.602;2022-10-16T13:02:06;24.00;53.50
975;DHT22;6115;49.296;10.602;2022-10-16T13:07:18;24.10;53.50
975;DHT22;6115;49.296;10.602;2022-10-16T13:17:52;24.50;53.60
975;DHT22;6115;49.296;10.602;2022-10-16T13:23:55;24.60;53.30
975;DHT22;6115;49.296;10.602;2022-10-16T13:28:38;24.90;52.80
975;DHT22;6115;49.296;10.602;2022-10-16T13:33:45;25.00;51.30
975;DHT22;6115;49.296;10.602;2022-10-16T13:38:46;25.10;51.40
975;DHT22;6115;49.296;10.602;2022-10-16T13:43:51;25.60;50.70
975;DHT22;6115;49.296;10.602;2022-10-16T13:49:03;25.60;50.10
975;DHT22;6115;49.296;10.602;2022-10-16T13:54:04;25.80;49.50
975;DHT22;6115;49.296;10.602;2022-10-16T13:59:07;25.70;49.00
975;DHT22;6115;49.296;10.602;2022-10-16T14:04:22;25.90;49.90
975;DHT22;6115;49.296;10.602;2022-10-16T14:09:26;26.00;49.50
975;DHT22;6115;49.296;10.602;2022-10-16T14:14:41;25.80;49.70
975;DHT22;6115;49.296;10.602;2022-10-16T14:19:46;25.30;49.90
975;DHT22;6115;49.296;10.602;2022-10-16T14:24:47;24.90;51.60
975;DHT22;6115;49.296;10.602;2022-10-16T14:29:48;24.90;52.30
975;DHT22;6115;49.296;10.602;2022-10-16T14:34:53;24.70;51.60
975;DHT22;6115;49.296;10.602;2022-10-16T14:39:55;24.30;52.60
975;DHT22;6115;49.296;10.602;2022-10-16T14:44:56;24.00;53.50
975;DHT22;6115;49.296;10.602;2022-10-16T14:49:57;23.80;53.50
975;DHT22;6115;49.296;10.602;2022-10-16T14:54:59;23.50;54.10
975;DHT22;6115;49.296;10.602;2022-10-16T15:00:00;23.50;54.70
975;DHT22;6115;49.296;10.602;2022-10-16T15:05:21;23.20;55.00
975;DHT22;6115;49.296;10.602;2022-10-16T15:10:24;23.00;55.90
975;DHT22;6115;49.296;10.602;2022-10-16T15:20:32;22.40;57.10
975;DHT22;6115;49.296;10.602;2022-10-16T15:25:37;22.40;57.80
975;DHT22;6115;49.296;10.602;2022-10-16T15:30:40;22.30;57.80
975;DHT22;6115;49.296;10.602;2022-10-16T15:35:41;22.10;58.40
975;DHT22;6115;49.296;10.602;2022-10-16T15:40:42;21.90;59.10
975;DHT22;6115;49.296;10.602;2022-10-16T15:45:43;21.90;59.20
975;DHT22;6115;49.296;10.602;2022-10-16T15:50:43;21.70;59.70
975;DHT22;6115;49.296;10.602;2022-10-16T15:55:44;21.60;60.50
975;DHT22;6115;49.296;10.602;2022-10-16T16:00:44;21.50;61.20
975;DHT22;6115;49.296;10.602;2022-10-16T16:05:45;21.30;62.20
975;DHT22;6115;49.296;10.602;2022-10-16T16:11:00;21.20;63.20
975;DHT22;6115;49.296;10.602;2022-10-16T16:16:01;21.00;64.10
975;DHT22;6115;49.296;10.602;2022-10-16T16:21:02;20.90;64.90
975;DHT22;6115;49.296;10.602;2022-10-16T16:26:26;20.70;64.80
975;DHT22;6115;49.296;10.602;2022-10-16T16:31:28;20.60;65.80
975;DHT22;6115;49.296;10.602;2022-10-16T16:36:33;20.50;66.70
975;DHT22;6115;49.296;10.602;2022-10-16T16:41:34;20.30;67.30
975;DHT22;6115;49.296;10.602;2022-10-16T16:46:34;20.20;67.30
975;DHT22;6115;49.296;10.602;2022-10-16T16:51:35;19.90;68.40
975;DHT22;6115;49.296;10.602;2022-10-16T16:56:35;19.80;68.90
975;DHT22;6115;49.296;10.602;2022-10-16T17:01:36;19.70;68.80
975;DHT22;6115;49.296;10.602;2022-10-16T17:06:37;19.50;69.90
975;DHT22;6115;49.296;10.602;2022-10-16T17:11:38;19.30;71.20
975;DHT22;6115;49.296;10.602;2022-10-16T17:16:41;19.20;71.30
975;DHT22;6115;49.296;10.602;2022-10-16T17:21:47;19.10;71.90
975;DHT22;6115;49.296;10.602;2022-10-16T17:26:48;19.10;72.00
975;DHT22;6115;49.296;10.602;2022-10-16T17:31:49;19.00;72.30
975;DHT22;6115;49.296;10.602;2022-10-16T17:36:49;18.90;72.60
975;DHT22;6115;49.296;10.602;2022-10-16T17:41:50;18.70;72.90
975;DHT22;6115;49.296;10.602;2022-10-16T17:46:52;18.70;72.90
975;DHT22;6115;49.296;10.602;2022-10-16T17:51:53;18.70;72.90
975;DHT22;6115;49.296;10.602;2022-10-16T17:56:54;18.60;73.10
975;DHT22;6115;49.296;10.602;2022-10-16T18:01:54;18.40;73.60
975;DHT22;6115;49.296;10.602;2022-10-16T18:06:55;18.40;74.20
975;DHT22;6115;49.296;10.602;2022-10-16T18:11:55;18.40;74.70
975;DHT22;6115;49.296;10.602;2022-10-16T18:16:59;18.30;74.40
975;DHT22;6115;49.296;10.602;2022-10-16T18:22:00;18.10;75.70
975;DHT22;6115;49.296;10.602;2022-10-16T18:27:01;18.10;75.10
975;DHT22;6115;49.296;10.602;2022-10-16T18:32:01;18.00;75.90
975;DHT22;6115;49.296;10.602;2022-10-16T18:37:02;17.80;76.00
975;DHT22;6115;49.296;10.602;2022-10-16T18:42:02;17.80;75.90
975;DHT22;6115;49.296;10.602;2022-10-16T18:47:03;17.70;75.50
975;DHT22;6115;49.296;10.602;2022-10-16T18:52:04;17.60;75.00
975;DHT22;6115;49.296;10.602;2022-10-16T18:57:04;17.40;74.90
975;DHT22;6115;49.296;10.602;2022-10-16T19:02:05;17.30;74.90
975;DHT22;6115;49.296;10.602;2022-10-16T19:07:06;17.10;75.00
975;DHT22;6115;49.296;10.602;2022-10-16T19:12:07;17.00;75.50
975;DHT22;6115;49.296;10.602;2022-10-16T19:17:07;16.80;75.80
975;DHT22;6115;49.296;10.602;2022-10-16T19:22:08;16.70;75.80
975;DHT22;6115;49.296;10.602;2022-10-16T19:27:13;16.60;75.70
975;DHT22;6115;49.296;10.602;2022-10-16T19:32:14;16.40;76.30
975;DHT22;6115;49.296;10.602;2022-10-16T19:37:14;16.40;77.30
975;DHT22;6115;49.296;10.602;2022-10-16T19:42:15;16.20;76.30
975;DHT22;6115;49.296;10.602;2022-10-16T19:47:15;16.10;76.70
975;DHT22;6115;49.296;10.602;2022-10-16T19:52:16;15.90;76.80
975;DHT22;6115;49.296;10.602;2022-10-16T19:57:17;15.80;77.50
975;DHT22;6115;49.296;10.602;2022-10-16T20:02:17;15.80;77.70
975;DHT22;6115;49.296;10.602;2022-10-16T20:07:18;15.70;78.30
975;DHT22;6115;49.296;10.602;2022-10-16T20:12:20;15.70;78.40
975;DHT22;6115;49.296;10.602;2022-10-16T20:17:20;15.50;78.30
975;DHT22;6115;49.296;10.602;2022-10-16T20:22:21;15.30;78.70
975;DHT22;6115;49.296;10.602;2022-10-16T20:27:21;15.20;78.90
975;DHT22;6115;49.296;10.602;2022-10-16T20:32:24;15.10;78.90
975;DHT22;6115;49.296;10.602;2022-10-16T20:37:24;14.90;78.80
975;DHT22;6115;49.296;10.602;2022-10-16T20:42:25;14.80;78.70
975;DHT22;6115;49.296;10.602;2022-10-16T20:47:25;14.80;78.40
975;DHT22;6115;49.296;10.602;2022-10-16T20:52:26;14.60;78.90
975;DHT22;6115;49.296;10.602;2022-10-16T20:57:26;14.60;79.00
975;DHT22;6115;49.296;10.602;2022-10-16T21:02:27;14.50;79.20
975;DHT22;6115;49.296;10.602;2022-10-16T21:07:27;14.40;79.80
975;DHT22;6115;49.296;10.602;2022-10-16T21:12:28;14.30;79.80
975;DHT22;6115;49.296;10.602;2022-10-16T21:17:30;14.30;79.70
975;DHT22;6115;49.296;10.602;2022-10-16T21:22:31;14.30;79.60
975;DHT22;6115;49.296;10.602;2022-10-16T21:27:38;14.20;79.70
975;DHT22;6115;49.296;10.602;2022-10-16T21:32:39;14.10;79.70
975;DHT22;6115;49.296;10.602;2022-10-16T21:37:40;14.10;79.80
975;DHT22;6115;49.296;10.602;2022-10-16T21:42:40;14.10;79.80
975;DHT22;6115;49.296;10.602;2022-10-16T21:47:41;14.10;79.70
975;DHT22;6115;49.296;10.602;2022-10-16T21:52:42;14.00;79.80
975;DHT22;6115;49.296;10.602;2022-10-16T21:57:42;14.00;79.80
975;DHT22;6115;49.296;10.602;2022-10-16T22:02:43;13.90;79.50
975;DHT22;6115;49.296;10.602;2022-10-16T22:07:43;13.80;79.60
975;DHT22;6115;49.296;10.602;2022-10-16T22:12:44;13.70;79.60
975;DHT22;6115;49.296;10.602;2022-10-16T22:17:44;13.70;79.80
975;DHT22;6115;49.296;10.602;2022-10-16T22:22:45;13.70;80.00
975;DHT22;6115;49.296;10.602;2022-10-16T22:27:45;13.70;80.00
975;DHT22;6115;49.296;10.602;2022-10-16T22:32:46;13.60;80.00
975;DHT22;6115;49.296;10.602;2022-10-16T22:37:46;13.50;80.10
975;DHT22;6115;49.296;10.602;2022-10-16T22:42:47;13.50;80.00
975;DHT22;6115;49.296;10.602;2022-10-16T22:47:47;13.40;80.10
975;DHT22;6115;49.296;10.602;2022-10-16T22:52:48;13.30;80.30
975;DHT22;6115;49.296;10.602;2022-10-16T22:57:49;13.30;80.50
975;DHT22;6115;49.296;10.602;2022-10-16T23:02:49;13.30;80.50
975;DHT22;6115;49.296;10.602;2022-10-16T23:07:50;13.20;80.60
975;DHT22;6115;49.296;10.602;2022-10-16T23:12:50;13.00;81.20
975;DHT22;6115;49.296;10.602;2022-10-16T23:17:51;13.00;81.70
975;DHT22;6115;49.296;10.602;2022-10-16T23:22:51;12.90;81.70
975;DHT22;6115;49.296;10.602;2022-10-16T23:27:55;12.80;81.60
975;DHT22;6115;49.296;10.602;2022-10-16T23:32:55;12.80;81.50
975;DHT22;6115;49.296;10.602;2022-10-16T23:37:56;12.70;81.40
975;DHT22;6115;49.296;10.602;2022-10-16T23:42:57;12.60;81.40
975;DHT22;6115;49.296;10.602;2022-10-16T23:47:58;12.50;81.20
975;DHT22;6115;49.296;10.602;2022-10-16T23:52:58;12.40;81.20
975;DHT22;6115;49.296;10.602;2022-10-16T23:57:59;12.40;81.20
